Observation data for Roaring Springs on 04/22/2019      Previous  Date  Next       Current Mesonet Observations  Soil Data  Daily Summary Page  Observations in Plain Language
KRRS 220500Z 18010KT 18/06 A2986 RMK A01 T01840061  RH  045%=      5-min Rain = 0
KRRS 220505Z 19012KT 20/06 A2986 RMK A01 T01970064  RH  043%=      5-min Rain = 0
KRRS 220510Z 19013KT 21/07 A2986 RMK A01 T02050066  RH  042%=      5-min Rain = 0
KRRS 220515Z 19013KT 21/07 A2986 RMK A01 T02090070  RH  041%=      5-min Rain = 0
KRRS 220520Z 20012KT 21/07 A2986 RMK A01 T02110073  RH  042%=      5-min Rain = 0
KRRS 220525Z 19013KT 21/08 A2986 RMK A01 T02100077  RH  043%=      5-min Rain = 0
KRRS 220530Z 20013G18KT 21/08 A2986 RMK A01 T02120081  RH  044%=      5-min Rain = 0
KRRS 220535Z 20012KT 21/08 A2986 RMK A01 T02110084  RH  045%=      5-min Rain = 0
KRRS 220540Z 20013KT 21/09 A2986 RMK A01 T02110087  RH  046%=      5-min Rain = 0
KRRS 220545Z 20013G18KT 21/09 A2987 RMK A01 T02090089  RH  047%=      5-min Rain = 0
KRRS 220550Z 20013KT 21/09 A2987 RMK A01 T02080091  RH  048%=      5-min Rain = 0
KRRS 220555Z 19013KT 21/09 A2987 RMK A01 T02070093  RH  050%=      5-min Rain = 0
KRRS 220600Z 19013KT 21/10 A2987 RMK A01 T02060096  RH  051%=      5-min Rain = 0
KRRS 220605Z 19013KT 21/10 A2987 RMK A01 T02050098  RH  052%=      5-min Rain = 0
KRRS 220610Z 19012KT 20/10 A2987 RMK A01 T02030100  RH  053%=      5-min Rain = 0
KRRS 220615Z 19012KT 20/10 A2987 RMK A01 T02010100  RH  054%=      5-min Rain = 0
KRRS 220620Z 19011KT 20/10 A2988 RMK A01 T01990100  RH  055%=      5-min Rain = 0
KRRS 220625Z 18011KT 20/10 A2988 RMK A01 T01960100  RH  056%=      5-min Rain = 0
KRRS 220630Z 18010KT 19/10 A2988 RMK A01 T01920100  RH  057%=      5-min Rain = 0
KRRS 220635Z 18011KT 19/10 A2988 RMK A01 T01900099  RH  057%=      5-min Rain = 0
KRRS 220640Z 18011KT 19/10 A2988 RMK A01 T01880099  RH  058%=      5-min Rain = 0
KRRS 220645Z 18011KT 19/10 A2988 RMK A01 T01850100  RH  059%=      5-min Rain = 0
KRRS 220650Z 18011KT 18/10 A2988 RMK A01 T01840100  RH  060%=      5-min Rain = 0
KRRS 220655Z 18012KT 18/10 A2988 RMK A01 T01840100  RH  060%=      5-min Rain = 0
KRRS 220700Z 19011KT 18/10 A2988 RMK A01 T01820100  RH  061%=      5-min Rain = 0
KRRS 220705Z 19011KT 18/10 A2989 RMK A01 T01800101  RH  062%=      5-min Rain = 0
KRRS 220710Z 19011KT 18/10 A2989 RMK A01 T01790102  RH  063%=      5-min Rain = 0
KRRS 220715Z 20011KT 18/10 A2989 RMK A01 T01790104  RH  064%=      5-min Rain = 0
KRRS 220720Z 20011KT 18/11 A2988 RMK A01 T01790106  RH  064%=      5-min Rain = 0
KRRS 220725Z 20012KT 18/11 A2988 RMK A01 T01800109  RH  065%=      5-min Rain = 0
KRRS 220730Z 21012KT 18/11 A2988 RMK A01 T01820114  RH  067%=      5-min Rain = 0
KRRS 220735Z 21012KT 18/12 A2987 RMK A01 T01840119  RH  068%=      5-min Rain = 0
KRRS 220740Z 20015KT 19/12 A2987 RMK A01 T01890124  RH  069%=      5-min Rain = 0
KRRS 220745Z 20016G21KT 19/13 A2987 RMK A01 T01930128  RH  069%=      5-min Rain = 0
KRRS 220750Z 21015G20KT 19/13 A2986 RMK A01 T01940129  RH  069%=      5-min Rain = 0
KRRS 220755Z 20015G21KT 19/13 A2986 RMK A01 T01930130  RH  069%=      5-min Rain = 0
KRRS 220800Z 20014G19KT 19/13 A2986 RMK A01 T01910130  RH  070%=      5-min Rain = 0
KRRS 220805Z 20014G19KT 19/13 A2986 RMK A01 T01900131  RH  071%=      5-min Rain = 0
KRRS 220810Z 21015KT 19/13 A2986 RMK A01 T01880132  RH  072%=      5-min Rain = 0
KRRS 220815Z 21015KT 19/13 A2986 RMK A01 T01890133  RH  073%=      5-min Rain = 0
KRRS 220820Z 21015G21KT 19/14 A2986 RMK A01 T01900136  RH  074%=      5-min Rain = 0
KRRS 220825Z 21015G23KT 19/14 A2986 RMK A01 T01910137  RH  074%=      5-min Rain = 0
KRRS 220830Z 21015KT 19/14 A2986 RMK A01 T01920139  RH  074%=      5-min Rain = 0
KRRS 220835Z 22015G20KT 19/14 A2987 RMK A01 T01920140  RH  075%=      5-min Rain = 0
KRRS 220840Z 22014KT 19/14 A2987 RMK A01 T01920140  RH  075%=      5-min Rain = 0
KRRS 220845Z 21015G21KT 19/14 A2987 RMK A01 T01920141  RH  076%=      5-min Rain = 0
KRRS 220850Z 22014G20KT 19/14 A2986 RMK A01 T01910142  RH  076%=      5-min Rain = 0
KRRS 220855Z 21015G21KT 19/14 A2987 RMK A01 T01920142  RH  076%=      5-min Rain = 0
KRRS 220900Z 21014KT 19/14 A2987 RMK A01 T01900143  RH  077%=      5-min Rain = 0
KRRS 220905Z 21015G22KT 19/14 A2987 RMK A01 T01900143  RH  077%=      5-min Rain = 0
KRRS 220910Z 21014G19KT 19/14 A2986 RMK A01 T01900143  RH  078%=      5-min Rain = 0
KRRS 220915Z 21015KT 19/14 A2987 RMK A01 T01890144  RH  079%=      5-min Rain = 0
KRRS 220920Z 21015KT 19/14 A2987 RMK A01 T01890144  RH  079%=      5-min Rain = 0
KRRS 220925Z 21013G18KT 19/14 A2987 RMK A01 T01870144  RH  079%=      5-min Rain = 0
KRRS 220930Z 22013G18KT 19/14 A2987 RMK A01 T01870144  RH  080%=      5-min Rain = 0
KRRS 220935Z 22013G18KT 19/15 A2988 RMK A01 T01860145  RH  080%=      5-min Rain = 0
KRRS 220940Z 22013G18KT 19/15 A2988 RMK A01 T01860145  RH  080%=      5-min Rain = 0
KRRS 220945Z 23011KT 19/15 A2988 RMK A01 T01850145  RH  081%=      5-min Rain = 0
KRRS 220950Z 23011KT 18/15 A2988 RMK A01 T01840145  RH  082%=      5-min Rain = 0
KRRS 220955Z 23010G15KT 18/15 A2988 RMK A01 T01830145  RH  082%=      5-min Rain = 0
KRRS 221000Z 23009KT 18/14 A2989 RMK A01 T01820144  RH  082%=      5-min Rain = 0
KRRS 221005Z 22008KT 18/14 A2989 RMK A01 T01800144  RH  083%=      5-min Rain = 0
KRRS 221010Z 22010KT 18/14 A2988 RMK A01 T01800144  RH  083%=      5-min Rain = 0
KRRS 221015Z 22009KT 18/14 A2988 RMK A01 T01790143  RH  083%=      5-min Rain = 0
KRRS 221020Z 22010G16KT 18/14 A2988 RMK A01 T01780143  RH  084%=      5-min Rain = 0
KRRS 221025Z 22010KT 18/14 A2988 RMK A01 T01790143  RH  083%=      5-min Rain = 0
KRRS 221030Z 22011KT 18/14 A2988 RMK A01 T01780143  RH  083%=      5-min Rain = 0
KRRS 221035Z 22010KT 18/14 A2988 RMK A01 T01780143  RH  083%=      5-min Rain = 0
KRRS 221040Z 22010KT 18/14 A2988 RMK A01 T01770143  RH  084%=      5-min Rain = 0
KRRS 221045Z 22009G14KT 18/14 A2988 RMK A01 T01760142  RH  084%=      5-min Rain = 0
KRRS 221050Z 22010KT 18/14 A2989 RMK A01 T01750142  RH  084%=      5-min Rain = 0
KRRS 221055Z 21008KT 18/14 A2989 RMK A01 T01750142  RH  085%=      5-min Rain = 0
KRRS 221100Z 26009KT 17/14 A2991 RMK A01 T01730142  RH  085%=      5-min Rain = 0
KRRS 221105Z 26009KT 17/14 A2991 RMK A01 T01720141  RH  086%=      5-min Rain = 0
KRRS 221110Z 26009KT 17/14 A2992 RMK A01 T01730141  RH  085%=      5-min Rain = 0
KRRS 221115Z 30005G10KT 17/14 A2993 RMK A01 T01740141  RH  084%=      5-min Rain = 0
KRRS 221120Z 35008KT 17/14 A2994 RMK A01 T01720140  RH  085%=      5-min Rain = 0
KRRS 221125Z 00006KT 17/14 A2994 RMK A01 T01670138  RH  087%=      5-min Rain = 0
KRRS 221130Z 33010KT 16/14 A2995 RMK A01 T01640138  RH  088%=      5-min Rain = 0
KRRS 221135Z 31009G14KT 17/14 A2994 RMK A01 T01660137  RH  086%=      5-min Rain = 0
KRRS 221140Z 33009KT 17/14 A2995 RMK A01 T01700135  RH  083%=      5-min Rain = 0
KRRS 221145Z 35006KT 17/13 A2995 RMK A01 T01680134  RH  084%=      5-min Rain = 0
KRRS 221150Z 01007KT 16/13 A2996 RMK A01 T01620132  RH  086%=      5-min Rain = 0
KRRS 221155Z 36005KT 16/13 A2995 RMK A01 T01600125  RH  083%=      5-min Rain = 0
KRRS 221200Z 34008KT 16/12 A2996 RMK A01 T01580117  RH  079%=      5-min Rain = 0
KRRS 221205Z 34009KT 16/09 A2996 RMK A01 T01560090  RH  067%=      5-min Rain = 0
KRRS 221210Z 34009G15KT 15/08 A2997 RMK A01 T01520082  RH  065%=      5-min Rain = 0
KRRS 221215Z 35012G17KT 15/08 A2997 RMK A01 T01490077  RH  064%=      5-min Rain = 0
KRRS 221220Z 35012KT 15/08 A2997 RMK A01 T01470076  RH  064%=      5-min Rain = 0
KRRS 221225Z 34012KT 15/08 A2997 RMK A01 T01450077  RH  065%=      5-min Rain = 0
KRRS 221230Z 34013KT 14/08 A2997 RMK A01 T01430078  RH  067%=      5-min Rain = 0
KRRS 221235Z 35014KT 14/08 A2997 RMK A01 T01430080  RH  068%=      5-min Rain = 0
KRRS 221240Z 34013KT 14/08 A2997 RMK A01 T01430083  RH  069%=      5-min Rain = 0
KRRS 221245Z 35011G17KT 14/09 A2998 RMK A01 T01420085  RH  070%=      5-min Rain = 0
KRRS 221250Z 35014KT 14/09 A2999 RMK A01 T01420086  RH  071%=      5-min Rain = 0
KRRS 221255Z 35013KT 14/09 A2999 RMK A01 T01420088  RH  072%=      5-min Rain = 0
KRRS 221300Z 35012KT 14/09 A2999 RMK A01 T01420089  RH  072%=      5-min Rain = 0
KRRS 221305Z 34010KT 14/09 A30 RMK A01 T01420090  RH  073%=      5-min Rain = 0
KRRS 221310Z 35011KT 14/09 A3001 RMK A01 T01420091  RH  073%=      5-min Rain = 0
KRRS 221315Z 35011KT 14/09 A30 RMK A01 T01420092  RH  074%=      5-min Rain = 0
KRRS 221320Z 35012G17KT 14/09 A30 RMK A01 T01420092  RH  074%=      5-min Rain = 0
KRRS 221325Z 35011G16KT 14/09 A3001 RMK A01 T01420092  RH  074%=      5-min Rain = 0
KRRS 221330Z 35012KT 14/09 A3001 RMK A01 T01420092  RH  074%=      5-min Rain = 0
KRRS 221335Z 35014G19KT 14/09 A3001 RMK A01 T01420092  RH  074%=      5-min Rain = 0
KRRS 221340Z 35014G19KT 14/09 A3001 RMK A01 T01420091  RH  074%=      5-min Rain = 0
KRRS 221345Z 35013G18KT 14/09 A3001 RMK A01 T01430092  RH  074%=      5-min Rain = 0
KRRS 221350Z 35013G19KT 14/09 A3001 RMK A01 T01430092  RH  074%=      5-min Rain = 0
KRRS 221355Z 35013G18KT 14/09 A3002 RMK A01 T01430092  RH  074%=      5-min Rain = 0
KRRS 221400Z 35013G18KT 14/09 A3001 RMK A01 T01430093  RH  074%=      5-min Rain = 0
KRRS 221405Z 35014G19KT 14/09 A3002 RMK A01 T01430092  RH  074%=      5-min Rain = 0
KRRS 221410Z 35013G19KT 14/09 A3002 RMK A01 T01440094  RH  074%=      5-min Rain = 0
KRRS 221415Z 36014G21KT 15/10 A3001 RMK A01 T01460095  RH  074%=      5-min Rain = 0
KRRS 221420Z 35014G19KT 15/10 A3002 RMK A01 T01470095  RH  073%=      5-min Rain = 0
KRRS 221425Z 36013G18KT 15/10 A3002 RMK A01 T01470096  RH  074%=      5-min Rain = 0
KRRS 221430Z 36014G19KT 15/10 A3002 RMK A01 T01470096  RH  074%=      5-min Rain = 0
KRRS 221435Z 36015G20KT 15/10 A3002 RMK A01 T01470097  RH  074%=      5-min Rain = 0
KRRS 221440Z 00015KT 15/10 A3002 RMK A01 T01500098  RH  073%=      5-min Rain = 0
KRRS 221445Z 36015G20KT 15/10 A3002 RMK A01 T01500098  RH  073%=      5-min Rain = 0
KRRS 221450Z 36014G19KT 15/10 A3002 RMK A01 T01500099  RH  074%=      5-min Rain = 0
KRRS 221455Z 36017KT 15/10 A3002 RMK A01 T01500098  RH  074%=      5-min Rain = 0
KRRS 221500Z 00015G20KT 15/10 A3002 RMK A01 T01500099  RH  074%=      5-min Rain = 0
KRRS 221505Z 00014G20KT 15/10 A3002 RMK A01 T01540103  RH  074%=      5-min Rain = 0
KRRS 221510Z 01012G18KT 16/10 A3002 RMK A01 T01560103  RH  073%=      5-min Rain = 0
KRRS 221515Z 36013G18KT 15/10 A3003 RMK A01 T01540102  RH  073%=      5-min Rain = 0
KRRS 221520Z 01013G19KT 15/10 A3003 RMK A01 T01530102  RH  074%=      5-min Rain = 0
KRRS 221525Z 00014KT 16/11 A3004 RMK A01 T01590106  RH  073%=      5-min Rain = 0
KRRS 221530Z 01014KT 16/11 A3004 RMK A01 T01620107  RH  072%=      5-min Rain = 0
KRRS 221535Z 02015KT 16/11 A3003 RMK A01 T01630107  RH  072%=      5-min Rain = 0
KRRS 221540Z 01013G18KT 16/11 A3004 RMK A01 T01640108  RH  072%=      5-min Rain = 0
KRRS 221545Z 00014G19KT 17/11 A3004 RMK A01 T01650108  RH  071%=      5-min Rain = 0
KRRS 221550Z 00014KT 16/11 A3004 RMK A01 T01630107  RH  072%=      5-min Rain = 0
KRRS 221555Z 01013KT 16/11 A3004 RMK A01 T01630108  RH  072%=      5-min Rain = 0
KRRS 221600Z 35013KT 16/11 A3004 RMK A01 T01630109  RH  073%=      5-min Rain = 0
KRRS 221605Z 36013KT 17/11 A3004 RMK A01 T01650110  RH  072%=      5-min Rain = 0
KRRS 221610Z 00012KT 17/11 A3004 RMK A01 T01670111  RH  072%=      5-min Rain = 0
KRRS 221615Z 01013KT 17/11 A3004 RMK A01 T01650110  RH  072%=      5-min Rain = 0
KRRS 221620Z 01011KT 17/11 A3004 RMK A01 T01650110  RH  073%=      5-min Rain = 0
KRRS 221625Z 01011KT 17/11 A3004 RMK A01 T01660111  RH  073%=      5-min Rain = 0
KRRS 221630Z 01011G16KT 17/11 A3004 RMK A01 T01660112  RH  073%=      5-min Rain = 0
KRRS 221635Z 01011G16KT 17/11 A3004 RMK A01 T01690113  RH  072%=      5-min Rain = 0
KRRS 221640Z 02012KT 17/11 A3003 RMK A01 T01710114  RH  072%=      5-min Rain = 0
KRRS 221645Z 02013G18KT 17/12 A3003 RMK A01 T01740116  RH  072%=      5-min Rain = 0
KRRS 221650Z 01013G18KT 18/12 A3003 RMK A01 T01770117  RH  071%=      5-min Rain = 0
KRRS 221655Z 01014KT 18/12 A3003 RMK A01 T01790119  RH  070%=      5-min Rain = 0
KRRS 221700Z 01013G18KT 18/12 A3003 RMK A01 T01810121  RH  070%=      5-min Rain = 0
KRRS 221705Z 02013G18KT 18/12 A3003 RMK A01 T01830121  RH  070%=      5-min Rain = 0
KRRS 221710Z 01014KT 18/12 A3003 RMK A01 T01840121  RH  069%=      5-min Rain = 0
KRRS 221715Z 02012G18KT 19/12 A3003 RMK A01 T01850123  RH  070%=      5-min Rain = 0
KRRS 221720Z 03014G19KT 19/12 A3002 RMK A01 T01850121  RH  069%=      5-min Rain = 0
KRRS 221725Z 03013G18KT 18/12 A3002 RMK A01 T01840121  RH  069%=      5-min Rain = 0
KRRS 221730Z 01010G15KT 19/12 A3003 RMK A01 T01860124  RH  070%=      5-min Rain = 0
KRRS 221735Z 03012KT 19/12 A3003 RMK A01 T01860123  RH  069%=      5-min Rain = 0
KRRS 221740Z 03012G18KT 19/12 A3003 RMK A01 T01880124  RH  069%=      5-min Rain = 0
KRRS 221745Z 02011G16KT 19/12 A3003 RMK A01 T01890124  RH  069%=      5-min Rain = 0
KRRS 221750Z 02010G15KT 19/13 A3003 RMK A01 T01920126  RH  068%=      5-min Rain = 0
KRRS 221755Z 04012G17KT 19/13 A3004 RMK A01 T01930125  RH  067%=      5-min Rain = 0
KRRS 221800Z 03008KT 20/13 A3004 RMK A01 T01950129  RH  068%=      5-min Rain = 0
KRRS 221805Z 03010G16KT 20/13 A3004 RMK A01 T01960128  RH  067%=      5-min Rain = 0
KRRS 221810Z 03010KT 19/13 A3004 RMK A01 T01930126  RH  068%=      5-min Rain = 0
KRRS 221815Z 02011KT 19/13 A3005 RMK A01 T01930126  RH  068%=      5-min Rain = 0
KRRS 221820Z 02010G15KT 19/13 A3004 RMK A01 T01910126  RH  068%=      5-min Rain = 0
KRRS 221825Z 04010KT 19/13 A3004 RMK A01 T01910125  RH  068%=      5-min Rain = 0
KRRS 221830Z 03010KT 19/13 A3004 RMK A01 T01910126  RH  069%=      5-min Rain = 0
KRRS 221835Z 03008G14KT 19/13 A3005 RMK A01 T01940128  RH  068%=      5-min Rain = 0
KRRS 221840Z 02009G14KT 20/13 A3005 RMK A01 T01950129  RH  068%=      5-min Rain = 0
KRRS 221845Z 03010KT 20/13 A3005 RMK A01 T01960129  RH  068%=      5-min Rain = 0
KRRS 221850Z 03008G14KT 20/13 A3005 RMK A01 T01960130  RH  068%=      5-min Rain = 0
KRRS 221855Z 05011KT 19/13 A3005 RMK A01 T01940126  RH  067%=      5-min Rain = 0
KRRS 221900Z 04010G15KT 19/13 A3004 RMK A01 T01920128  RH  069%=      5-min Rain = 0
KRRS 221905Z 03010KT 19/13 A3005 RMK A01 T01930128  RH  068%=      5-min Rain = 0
KRRS 221910Z 03009G14KT 19/13 A3005 RMK A01 T01930127  RH  068%=      5-min Rain = 0
KRRS 221915Z 03012KT 19/13 A3004 RMK A01 T01930128  RH  069%=      5-min Rain = 0
KRRS 221920Z 03012G17KT 20/13 A3004 RMK A01 T01960130  RH  068%=      5-min Rain = 0
KRRS 221925Z 03012KT 20/13 A3004 RMK A01 T02000132  RH  068%=      5-min Rain = 0
KRRS 221930Z 03012G17KT 19/13 A3004 RMK A01 T01940128  RH  068%=      5-min Rain = 0
KRRS 221935Z 03011G16KT 19/13 A3004 RMK A01 T01930128  RH  068%=      5-min Rain = 0
KRRS 221940Z 02011KT 19/13 A3004 RMK A01 T01920129  RH  069%=      5-min Rain = 0
KRRS 221945Z 01013G18KT 19/13 A3003 RMK A01 T01930129  RH  069%=      5-min Rain = 0
KRRS 221950Z 01013G18KT 19/13 A3003 RMK A01 T01910129  RH  070%=      5-min Rain = 0
KRRS 221955Z 02014G19KT 19/13 A3003 RMK A01 T01900128  RH  070%=      5-min Rain = 0
KRRS 222000Z 03013G18KT 19/13 A3003 RMK A01 T01890128  RH  071%=      5-min Rain = 0
KRRS 222005Z 03011KT 19/13 A3003 RMK A01 T01900130  RH  071%=      5-min Rain = 0
KRRS 222010Z 02013KT 19/13 A3003 RMK A01 T01900129  RH  070%=      5-min Rain = 0
KRRS 222015Z 02012KT 19/13 A3003 RMK A01 T01890128  RH  070%=      5-min Rain = 0
KRRS 222020Z 02011G16KT 19/13 A3004 RMK A01 T01890128  RH  071%=      5-min Rain = 0
KRRS 222025Z 04012KT 19/13 A3004 RMK A01 T01890128  RH  070%=      5-min Rain = 0
KRRS 222030Z 04012KT 19/13 A3003 RMK A01 T01880128  RH  071%=      5-min Rain = 0
KRRS 222035Z 03011G18KT 19/13 A3003 RMK A01 T01870129  RH  072%=      5-min Rain = 0
KRRS 222040Z 03012G17KT 19/13 A3004 RMK A01 T01880129  RH  072%=      5-min Rain = 0
KRRS 222045Z 03012KT 19/13 A3004 RMK A01 T01900130  RH  071%=      5-min Rain = 0
KRRS 222050Z 02011KT 19/13 A3005 RMK A01 T01910132  RH  071%=      5-min Rain = 0
KRRS 222055Z 02012G17KT 19/13 A3004 RMK A01 T01900131  RH  071%=      5-min Rain = 0
KRRS 222100Z 03012KT 19/13 A3005 RMK A01 T01880130  RH  072%=      5-min Rain = 0
KRRS 222105Z 03013KT 19/13 A3004 RMK A01 T01860129  RH  072%=      5-min Rain = 0
KRRS 222110Z 04009KT 19/13 A3004 RMK A01 T01890132  RH  072%=      5-min Rain = 0
KRRS 222115Z 03010KT 19/13 A3005 RMK A01 T01900131  RH  072%=      5-min Rain = 0
KRRS 222120Z 03011KT 19/13 A3004 RMK A01 T01880132  RH  072%=      5-min Rain = 0
KRRS 222125Z 02010G15KT 19/13 A3004 RMK A01 T01880132  RH  073%=      5-min Rain = 0
KRRS 222130Z 03010G16KT 19/13 A3004 RMK A01 T01870132  RH  073%=      5-min Rain = 0
KRRS 222135Z 03006KT 19/13 A3005 RMK A01 T01870133  RH  074%=      5-min Rain = 0
KRRS 222140Z 04010KT 19/13 A3005 RMK A01 T01850131  RH  074%=      5-min Rain = 0
KRRS 222145Z 03011KT 19/13 A3004 RMK A01 T01850133  RH  075%=      5-min Rain = 0
KRRS 222150Z 03012KT 19/13 A3002 RMK A01 T01850133  RH  074%=      5-min Rain = 0
KRRS 222155Z 04011KT 19/14 A3002 RMK A01 T01860135  RH  075%=      5-min Rain = 0
KRRS 222200Z 04012KT 19/13 A3003 RMK A01 T01850134  RH  075%=      5-min Rain = 0
KRRS 222205Z 04009KT 19/14 A3003 RMK A01 T01850135  RH  076%=      5-min Rain = 0
KRRS 222210Z 04012KT 18/14 A3003 RMK A01 T01840135  RH  076%=      5-min Rain = 0
KRRS 222215Z 04012KT 18/13 A3003 RMK A01 T01840134  RH  076%=      5-min Rain = 0
KRRS 222220Z 05009KT 18/13 A3004 RMK A01 T01830134  RH  076%=      5-min Rain = 0
KRRS 222225Z 05008KT 18/13 A3005 RMK A01 T01820134  RH  076%=      5-min Rain = 0
KRRS 222230Z 05007KT 18/13 A3006 RMK A01 T01810133  RH  077%=      5-min Rain = 0
KRRS 222235Z 02007KT 18/13 A3005 RMK A01 T01800134  RH  078%=      5-min Rain = 0
KRRS 222240Z 02007KT 18/14 A3005 RMK A01 T01810136  RH  078%=      5-min Rain = 0
KRRS 222245Z 02006KT 18/14 A3005 RMK A01 T01810137  RH  079%=      5-min Rain = 0
KRRS 222250Z 03008KT 18/14 A3005 RMK A01 T01810136  RH  078%=      5-min Rain = 0
KRRS 222255Z 04009KT 18/14 A3005 RMK A01 T01810136  RH  078%=      5-min Rain = 0
KRRS 222300Z 04008KT 18/14 A3005 RMK A01 T01810137  RH  079%=      5-min Rain = 0
KRRS 222305Z 04009KT 18/14 A3005 RMK A01 T01810137  RH  079%=      5-min Rain = 0
KRRS 222310Z 04010KT 18/14 A3005 RMK A01 T01800137  RH  079%=      5-min Rain = 0
KRRS 222315Z 04010G15KT 18/14 A3004 RMK A01 T01790137  RH  079%=      5-min Rain = 0
KRRS 222320Z 03011KT 18/14 A3004 RMK A01 T01790137  RH  080%=      5-min Rain = 0
KRRS 222325Z 03010KT 18/14 A3004 RMK A01 T01780138  RH  080%=      5-min Rain = 0
KRRS 222330Z 04007KT 18/14 A3005 RMK A01 T01780139  RH  081%=      5-min Rain = 0
KRRS 222335Z 04008KT 18/14 A3005 RMK A01 T01770139  RH  082%=      5-min Rain = 0
KRRS 222340Z 04008KT 18/14 A3005 RMK A01 T01760139  RH  082%=      5-min Rain = 0
KRRS 222345Z 04008KT 18/14 A3005 RMK A01 T01760139  RH  083%=      5-min Rain = 0
KRRS 222350Z 04010KT 17/14 A3004 RMK A01 T01740141  RH  084%=      5-min Rain = 0
KRRS 222355Z 04008KT 17/14 A3004 RMK A01 T01720142  RH  086%=      5-min Rain = 0
KRRS 230000Z 04007KT 17/14 A3005 RMK A01 T01700142  RH  087%=      5-min Rain = 0
KRRS 230005Z 01008KT 17/14 A3004 RMK A01 T01680143  RH  089%=      5-min Rain = 0
KRRS 230010Z 01008KT 17/15 A3004 RMK A01 T01650145  RH  092%=      5-min Rain = 0
KRRS 230015Z 02010KT 16/15 A3003 RMK A01 T01630145  RH  093%=      5-min Rain = 0
KRRS 230020Z 02011KT 16/15 A3002 RMK A01 T01620146  RH  094%=      5-min Rain = 0.01
KRRS 230025Z 02009G14KT 16/15 A3002 RMK A01 T01610146  RH  095%=      5-min Rain = 0
KRRS 230030Z 01009KT 16/15 A3003 RMK A01 T01600146  RH  095%=      5-min Rain = 0
KRRS 230035Z 35011KT 16/15 A3002 RMK A01 T01600146  RH  096%=      5-min Rain = 0
KRRS 230040Z 35010KT 16/15 A3002 RMK A01 T01590146  RH  096%=      5-min Rain = 0
KRRS 230045Z 00011KT 16/15 A3003 RMK A01 T01590145  RH  095%=      5-min Rain = 0
KRRS 230050Z 00011KT 16/14 A3003 RMK A01 T01590144  RH  095%=      5-min Rain = 0
KRRS 230055Z 00009KT 16/15 A3003 RMK A01 T01580145  RH  096%=      5-min Rain = 0
KRRS 230100Z 36009KT 16/15 A3002 RMK A01 T01580146  RH  097%=      5-min Rain = 0
KRRS 230105Z 36009KT 16/15 A3002 RMK A01 T01570146  RH  098%=      5-min Rain = 0
KRRS 230110Z 00009KT 16/15 A3003 RMK A01 T01560146  RH  098%=      5-min Rain = 0.01
KRRS 230115Z 01008KT 16/15 A3003 RMK A01 T01550145  RH  098%=      5-min Rain = 0.06
KRRS 230120Z 02007KT 15/15 A3003 RMK A01 T01530145  RH  099%=      5-min Rain = 0.05
KRRS 230125Z 01010KT 15/15 A3003 RMK A01 T01520145  RH  100%=      5-min Rain = 0.03
KRRS 230130Z 02010KT 15/14 A3002 RMK A01 T01510144  RH  100%=      5-min Rain = 0.04
KRRS 230135Z 03008KT 15/14 A3003 RMK A01 T01490143  RH  100%=      5-min Rain = 0
KRRS 230140Z 04009KT 15/14 A3003 RMK A01 T01490142  RH  100%=      5-min Rain = 0
KRRS 230145Z 04010KT 15/14 A3003 RMK A01 T01490142  RH  100%=      5-min Rain = 0
KRRS 230150Z 03009KT 15/14 A3003 RMK A01 T01490142  RH  100%=      5-min Rain = 0.02
KRRS 230155Z 03011KT 15/14 A3003 RMK A01 T01490142  RH  100%=      5-min Rain = 0.01
KRRS 230200Z 03012KT 15/14 A3002 RMK A01 T01480142  RH  100%=      5-min Rain = 0
KRRS 230205Z 02011KT 15/14 A3002 RMK A01 T01480142  RH  100%=      5-min Rain = 0.01
KRRS 230210Z 02010G17KT 15/14 A3002 RMK A01 T01480142  RH  100%=      5-min Rain = 0
KRRS 230215Z 02012KT 15/14 A3002 RMK A01 T01480142  RH  100%=      5-min Rain = 0
KRRS 230220Z 02011KT 15/14 A3003 RMK A01 T01480142  RH  100%=      5-min Rain = 0
KRRS 230225Z 02010KT 15/14 A3003 RMK A01 T01490142  RH  100%=      5-min Rain = 0
KRRS 230230Z 02010KT 15/14 A3004 RMK A01 T01490143  RH  100%=      5-min Rain = 0
KRRS 230235Z 02009G14KT 15/14 A3005 RMK A01 T01490143  RH  100%=      5-min Rain = 0
KRRS 230240Z 02009KT 15/14 A3005 RMK A01 T01490143  RH  100%=      5-min Rain = 0
KRRS 230245Z 02008KT 15/14 A3005 RMK A01 T01490142  RH  100%=      5-min Rain = 0
KRRS 230250Z 01007KT 15/14 A3005 RMK A01 T01490143  RH  100%=      5-min Rain = 0
KRRS 230255Z 00009KT 15/14 A3004 RMK A01 T01490143  RH  100%=      5-min Rain = 0
KRRS 230300Z 00009KT 15/14 A3004 RMK A01 T01490142  RH  100%=      5-min Rain = 0
KRRS 230305Z 01008KT 15/14 A3004 RMK A01 T01490142  RH  100%=      5-min Rain = 0
KRRS 230310Z 01008KT 15/14 A3004 RMK A01 T01490142  RH  100%=      5-min Rain = 0
KRRS 230315Z 01009KT 15/14 A3004 RMK A01 T01490142  RH  100%=      5-min Rain = 0
KRRS 230320Z 02010KT 15/14 A3004 RMK A01 T01480142  RH  100%=      5-min Rain = 0.01
KRRS 230325Z 02008G13KT 15/14 A3005 RMK A01 T01480142  RH  100%=      5-min Rain = 0.02
KRRS 230330Z 01011G16KT 15/14 A3005 RMK A01 T01480141  RH  100%=      5-min Rain = 0.07
KRRS 230335Z 01012KT 15/14 A3004 RMK A01 T01470141  RH  100%=      5-min Rain = 0.01
KRRS 230340Z 01010KT 15/14 A3005 RMK A01 T01470141  RH  100%=      5-min Rain = 0
KRRS 230345Z 36012G17KT 15/14 A3004 RMK A01 T01460140  RH  100%=      5-min Rain = 0.01
KRRS 230350Z 35014G19KT 14/14 A3004 RMK A01 T01420136  RH  100%=      5-min Rain = 0.02
KRRS 230355Z 34013G18KT 14/13 A3004 RMK A01 T01410134  RH  100%=      5-min Rain = 0.01
KRRS 230400Z 34015G21KT 14/13 A3003 RMK A01 T01400134  RH  100%=      5-min Rain = 0.03
KRRS 230405Z 33014G20KT 14/13 A3004 RMK A01 T01380132  RH  100%=      5-min Rain = 0.02
KRRS 230410Z 34013KT 14/13 A3004 RMK A01 T01370131  RH  100%=      5-min Rain = 0.08
KRRS 230415Z 33015G20KT 14/13 A3004 RMK A01 T01360130  RH  100%=      5-min Rain = 0.05
KRRS 230420Z 34015G21KT 14/13 A3003 RMK A01 T01350129  RH  100%=      5-min Rain = 0.05
KRRS 230425Z 35017G24KT 14/13 A3002 RMK A01 T01350129  RH  100%=      5-min Rain = 0.04
KRRS 230430Z 35017G24KT 14/13 A3002 RMK A01 T01350129  RH  100%=      5-min Rain = 0.06
KRRS 230435Z 35015KT 14/13 A3002 RMK A01 T01350129  RH  100%=      5-min Rain = 0.01
KRRS 230440Z 35015G20KT 13/13 A3003 RMK A01 T01340128  RH  100%=      5-min Rain = 0.02
KRRS 230445Z 35017G24KT 13/13 A3003 RMK A01 T01340128  RH  100%=      5-min Rain = 0.02
KRRS 230450Z 35016G25KT 13/13 A3002 RMK A01 T01330127  RH  100%=      5-min Rain = 0.03
KRRS 230455Z 36013G22KT 13/13 A3002 RMK A01 T01320126  RH  100%=      5-min Rain = 0.09

Page generated in 0.0097 seconds.